Time;durP1;ratioP1;P1;durP2;ratioP2;P2;SDS_P1;SDS_P2;PMS_P1;PMS_P2;Temp;Humidity;BMP_temperature;BMP_pressure;BME280_temperature;BME280_humidity;BME280_pressure;Samples;Min_cycle;Max_cycle;Signal;HPM_P1;HPM_P2
2022/12/16 00:00:01;;;;;;;33.15;12.40;;;;;;;3.23;64.55;101190.94;5024077;28;20573;-77
2022/12/16 00:02:27;;;;;;;32.35;11.65;;;;;;;3.36;64.27;101199.56;5023331;28;20378;-77
2022/12/16 00:04:52;;;;;;;27.93;11.80;;;;;;;3.43;64.26;101185.09;5017717;28;20386;-76
2022/12/16 00:07:17;;;;;;;26.77;11.10;;;;;;;3.52;64.19;101186.19;5024021;28;20404;-75
2022/12/16 00:09:43;;;;;;;24.70;10.63;;;;;;;3.42;63.86;101178.19;5023450;28;20477;-76
2022/12/16 00:12:08;;;;;;;26.85;11.35;;;;;;;3.33;64.21;101171.00;5030716;28;20379;-76
2022/12/16 00:14:34;;;;;;;22.10;10.17;;;;;;;3.37;63.91;101185.53;5031020;28;20370;-75
2022/12/16 00:16:59;;;;;;;34.53;11.23;;;;;;;3.36;64.26;101196.97;5030838;28;20393;-76
2022/12/16 00:19:25;;;;;;;28.50;10.90;;;;;;;3.42;63.85;101212.25;5030832;28;20756;-75
2022/12/16 00:21:50;;;;;;;35.50;11.65;;;;;;;3.41;64.08;101207.13;5030327;28;20394;-75
2022/12/16 00:24:16;;;;;;;28.95;10.10;;;;;;;3.39;64.28;101209.84;5030403;28;20381;-75
2022/12/16 00:26:41;;;;;;;31.53;10.50;;;;;;;3.45;64.22;101193.66;5023518;28;20902;-75
2022/12/16 00:29:09;;;;;;;26.17;10.73;;;;;;;3.57;63.67;101186.69;5030461;28;20378;-75
2022/12/16 00:31:35;;;;;;;24.27;10.82;;;;;;;3.58;63.61;101192.78;5029503;28;20394;-75
2022/12/16 00:34:00;;;;;;;27.63;10.60;;;;;;;3.60;63.69;101188.25;5026116;28;20909;-75
2022/12/16 00:36:26;;;;;;;24.93;10.83;;;;;;;3.53;63.92;101194.88;5029765;28;20420;-75
2022/12/16 00:38:51;;;;;;;32.03;10.03;;;;;;;3.53;63.74;101184.41;5030011;28;20387;-74
2022/12/16 00:41:17;;;;;;;28.93;10.50;;;;;;;3.50;63.87;101189.91;5009991;28;20440;-75
2022/12/16 00:43:43;;;;;;;26.37;10.43;;;;;;;3.44;63.69;101173.66;5029785;28;20405;-75
2022/12/16 00:46:08;;;;;;;32.33;10.60;;;;;;;3.39;63.75;101175.78;5027005;28;20414;-75
2022/12/16 00:48:34;;;;;;;35.05;12.70;;;;;;;3.43;63.84;101187.69;5029629;28;20390;-75
2022/12/16 00:50:59;;;;;;;25.25;11.50;;;;;;;3.54;63.97;101168.56;5029518;28;20379;-75
2022/12/16 00:53:25;;;;;;;27.77;10.57;;;;;;;3.58;63.67;101166.56;5024303;28;20456;-76
2022/12/16 00:55:59;;;;;;;26.53;10.33;;;;;;;3.57;63.84;101172.78;5029570;28;20374;-76
2022/12/16 00:58:25;;;;;;;32.77;10.70;;;;;;;3.51;63.95;101176.69;5029470;28;20374;-76
2022/12/16 01:00:52;;;;;;;26.58;10.60;;;;;;;3.57;63.58;101186.69;5028858;28;20607;-76
2022/12/16 01:03:18;;;;;;;23.20;10.30;;;;;;;3.60;63.43;101178.63;5029158;28;20382;-76
2022/12/16 01:05:43;;;;;;;24.90;10.73;;;;;;;3.54;63.51;101170.38;5014203;28;20409;-76
2022/12/16 01:08:09;;;;;;;33.77;10.27;;;;;;;3.52;63.45;101156.53;5015753;28;20393;-76
2022/12/16 01:10:34;;;;;;;28.37;11.30;;;;;;;3.57;63.54;101144.75;5015938;28;20382;-76
2022/12/16 01:12:59;;;;;;;20.73;9.60;;;;;;;3.43;63.72;101124.81;5033392;28;20390;-77
2022/12/16 01:15:25;;;;;;;23.42;10.05;;;;;;;3.35;63.95;101119.31;5033508;28;20378;-77
2022/12/16 01:17:51;;;;;;;26.40;10.73;;;;;;;3.43;63.86;101135.28;5032548;28;20829;-76
2022/12/16 01:20:17;;;;;;;24.87;10.87;;;;;;;3.42;63.83;101144.13;5032985;28;20859;-77
2022/12/16 01:22:42;;;;;;;23.05;10.27;;;;;;;3.38;63.67;101140.03;5029407;28;20378;-77
2022/12/16 01:25:11;;;;;;;24.70;11.82;;;;;;;3.49;63.79;101169.84;5032474;28;20386;-76
2022/12/16 01:27:37;;;;;;;25.88;12.02;;;;;;;3.55;63.99;101151.91;5030460;28;20410;-76
2022/12/16 01:30:03;;;;;;;23.80;11.47;;;;;;;3.57;63.69;101139.50;5031568;28;20425;-76
2022/12/16 01:32:29;;;;;;;24.27;10.70;;;;;;;3.60;63.39;101148.94;5033195;28;20433;-76
2022/12/16 01:34:54;;;;;;;28.42;12.60;;;;;;;3.50;63.41;101163.69;5013840;28;20406;-76
2022/12/16 01:37:20;;;;;;;26.33;14.05;;;;;;;3.46;63.64;101168.31;5031345;28;20371;-76
2022/12/16 01:39:46;;;;;;;30.65;14.32;;;;;;;3.58;63.23;101145.59;5033235;28;20383;-77
2022/12/16 01:42:13;;;;;;;31.77;13.48;;;;;;;3.52;63.16;101123.28;5027585;28;20714;-76
2022/12/16 01:44:42;;;;;;;28.02;13.38;;;;;;;3.48;63.23;101116.63;5033157;28;20386;-76
2022/12/16 01:47:15;;;;;;;26.33;13.85;;;;;;;3.47;63.23;101114.94;5032924;28;20412;-77
2022/12/16 01:49:49;;;;;;;28.27;13.40;;;;;;;3.52;63.32;101123.28;5032708;28;20789;-76
2022/12/16 01:52:20;;;;;;;25.75;14.23;;;;;;;3.55;63.31;101138.81;5032283;28;20847;-77
2022/12/16 01:54:59;;;;;;;27.05;14.23;;;;;;;3.45;62.81;101133.38;5031587;28;20382;-76
2022/12/16 01:57:32;;;;;;;27.60;13.77;;;;;;;3.33;63.24;101126.44;5032694;28;20738;-77
2022/12/16 01:59:59;;;;;;;25.23;14.40;;;;;;;3.33;63.87;101130.84;5032610;28;20453;-77
2022/12/16 02:02:26;;;;;;;23.65;13.57;;;;;;;3.34;63.50;101138.59;5031279;28;20390;-77
2022/12/16 02:07:36;;;;;;;26.55;15.50;;;;;;;3.41;63.28;101163.41;5032631;28;20409;-76
2022/12/16 02:10:03;;;;;;;27.97;17.53;;;;;;;3.37;63.35;101150.66;5029958;28;20382;-77
2022/12/16 02:12:58;;;;;;;36.38;21.80;;;;;;;3.41;63.38;101160.78;5033102;28;20414;-77
2022/12/16 02:15:49;;;;;;;24.00;15.55;;;;;;;3.44;63.18;101165.81;5030965;28;20367;-77
2022/12/16 02:18:33;;;;;;;26.15;17.25;;;;;;;3.59;63.30;101165.63;5026293;28;20417;-77
2022/12/16 02:21:26;;;;;;;22.75;15.50;;;;;;;3.42;63.39;101177.31;5032259;28;20901;-77
2022/12/16 02:24:14;;;;;;;17.52;12.43;;;;;;;3.48;63.16;101176.91;5032895;28;20397;-77
2022/12/16 02:27:17;;;;;;;17.55;12.25;;;;;;;3.40;63.42;101184.47;5028428;28;20411;-78
2022/12/16 02:30:03;;;;;;;19.90;11.27;;;;;;;3.50;63.14;101175.00;5033022;28;20992;-77
2022/12/16 02:32:41;;;;;;;16.60;11.23;;;;;;;3.50;63.28;101179.41;5032792;28;20867;-77
2022/12/16 02:35:38;;;;;;;16.23;11.35;;;;;;;3.60;63.25;101165.50;5030924;28;20387;-78
2022/12/16 02:38:13;;;;;;;15.40;10.50;;;;;;;3.58;63.00;101148.22;5031411;28;20457;-77
2022/12/16 02:40:50;;;;;;;17.92;11.10;;;;;;;3.58;62.69;101141.19;5029887;28;20382;-77
2022/12/16 02:43:33;;;;;;;18.92;13.25;;;;;;;3.56;62.92;101100.31;5031780;28;20398;-77
2022/12/16 02:45:59;;;;;;;17.23;11.50;;;;;;;3.63;63.15;101114.63;5029133;28;20497;-77
2022/12/16 02:48:25;;;;;;;15.43;10.63;;;;;;;3.62;63.31;101115.59;5028751;28;20732;-77
2022/12/16 02:50:51;;;;;;;15.65;9.70;;;;;;;3.61;62.75;101127.84;5031036;28;20385;-76
2022/12/16 02:53:19;;;;;;;18.60;11.17;;;;;;;3.71;62.93;101130.63;5031357;28;20375;-76
2022/12/16 02:55:51;;;;;;;19.23;12.23;;;;;;;3.69;62.66;101121.19;5029255;28;20398;-76
2022/12/16 02:58:21;;;;;;;17.67;11.30;;;;;;;3.76;62.09;101136.38;5027482;28;20401;-77
2022/12/16 03:01:00;;;;;;;26.80;14.88;;;;;;;3.78;62.80;101125.75;5030259;28;20384;-77
2022/12/16 03:03:36;;;;;;;55.45;20.63;;;;;;;3.91;62.03;101123.88;5029886;28;20398;-77
2022/12/16 03:06:04;;;;;;;30.00;15.55;;;;;;;3.80;62.17;101123.88;5029493;28;20467;-76
2022/12/16 03:08:34;;;;;;;27.50;15.88;;;;;;;3.64;62.38;101125.00;5031090;28;20374;-77
2022/12/16 03:11:03;;;;;;;25.45;14.18;;;;;;;3.64;62.94;101116.31;5031383;28;20432;-77
2022/12/16 03:13:35;;;;;;;24.65;13.55;;;;;;;3.73;62.89;101112.16;5031432;28;20433;-77
2022/12/16 03:16:04;;;;;;;26.90;13.68;;;;;;;3.76;62.52;101104.03;5013499;28;20371;-77
2022/12/16 03:18:30;;;;;;;37.67;15.48;;;;;;;3.70;62.57;101109.78;5031201;28;20394;-77
2022/12/16 03:21:05;;;;;;;60.70;23.10;;;;;;;3.68;62.59;101093.31;5028687;28;20704;-77
2022/12/16 03:23:40;;;;;;;55.13;22.52;;;;;;;3.79;62.63;101101.19;5010484;28;20791;-77
2022/12/16 03:26:11;;;;;;;48.55;23.00;;;;;;;3.88;62.38;101097.88;5030848;28;20402;-77
2022/12/16 03:28:48;;;;;;;52.10;22.63;;;;;;;3.99;62.59;101100.50;5030542;28;20378;-77
2022/12/16 03:31:14;;;;;;;41.75;21.95;;;;;;;4.03;62.21;101095.84;5028010;28;20414;-77
2022/12/16 03:33:58;;;;;;;38.23;20.83;;;;;;;4.00;62.48;101085.63;5028049;28;20469;-77
2022/12/16 03:36:26;;;;;;;41.85;20.88;;;;;;;3.88;62.48;101078.69;5029256;28;20386;-77
2022/12/16 03:38:54;;;;;;;31.50;15.98;;;;;;;3.71;63.04;101083.44;5030642;28;20374;-77
2022/12/16 03:41:22;;;;;;;32.57;14.63;;;;;;;3.63;63.12;101080.53;5030435;28;20374;-77
2022/12/16 03:43:48;;;;;;;39.55;18.38;;;;;;;3.75;63.24;101081.41;5030242;28;20389;-77
2022/12/16 03:46:15;;;;;;;30.02;15.73;;;;;;;3.91;62.60;101075.84;5030121;28;20402;-77
2022/12/16 03:48:45;;;;;;;34.88;13.65;;;;;;;3.86;62.35;101081.44;5030951;28;20561;-77
2022/12/16 03:51:10;;;;;;;27.40;13.75;;;;;;;3.82;62.96;101080.81;5021381;28;20546;-77
2022/12/16 03:53:36;;;;;;;26.45;12.93;;;;;;;3.96;62.57;101097.28;5020150;28;20469;-77
2022/12/16 03:56:01;;;;;;;27.80;14.47;;;;;;;4.00;62.57;101089.06;5012743;28;20424;-77
2022/12/16 03:58:27;;;;;;;30.03;14.33;;;;;;;4.08;62.04;101098.97;5011066;28;20372;-77
2022/12/16 04:00:52;;;;;;;37.53;15.38;;;;;;;4.02;62.18;101102.06;5012442;28;20461;-77
2022/12/16 04:03:21;;;;;;;35.67;16.83;;;;;;;3.99;62.72;101126.75;5009387;28;20374;-77
2022/12/16 04:05:47;;;;;;;41.22;18.75;;;;;;;4.05;62.51;101133.28;5012055;28;20789;-77
2022/12/16 04:08:12;;;;;;;32.88;15.75;;;;;;;4.00;62.60;101115.31;5013271;28;20372;-77
2022/12/16 04:24:27;;;;;;;38.65;16.35;;;;;;;4.20;62.16;101068.34;5009754;28;20471;-77
2022/12/16 04:30:17;;;;;;;28.20;15.05;;;;;;;4.00;62.83;101054.16;5010486;28;20403;-77
2022/12/16 04:32:22;;;;;;;33.20;16.50;;;;;;;4.07;62.75;101085.97;5009686;28;21263;-77
2022/12/16 04:34:48;;;;;;;28.83;14.27;;;;;;;4.11;62.58;101076.91;5014546;28;20396;-77
